createdAt,value
2023-01-30T00:01:49.590Z,66.07
2023-01-30T00:04:17.454Z,65.86
2023-01-30T00:06:44.452Z,66.55
2023-01-30T00:09:14.085Z,66.30
2023-01-30T00:11:40.791Z,66.40
2023-01-30T00:14:07.430Z,66.19
2023-01-30T00:16:34.795Z,65.47
2023-01-30T00:19:01.390Z,65.87
2023-01-30T00:21:28.124Z,65.78
2023-01-30T00:23:54.950Z,65.39
2023-01-30T00:26:21.611Z,65.84
2023-01-30T00:28:48.278Z,66.00
2023-01-30T00:31:15.084Z,65.82
2023-01-30T00:33:42.010Z,65.97
2023-01-30T00:36:10.973Z,65.51
2023-01-30T00:38:37.737Z,65.42
2023-01-30T00:41:07.208Z,65.34
2023-01-30T00:43:52.557Z,66.51
2023-01-30T00:46:48.687Z,66.01
2023-01-30T00:49:15.442Z,65.52
2023-01-30T00:51:42.278Z,65.79
2023-01-30T00:54:09.206Z,65.53
2023-01-30T00:56:35.825Z,66.09
2023-01-30T00:59:03.391Z,66.03
2023-01-30T01:01:29.972Z,66.65
2023-01-30T01:03:56.708Z,66.33
2023-01-30T01:06:23.353Z,65.73
2023-01-30T01:08:49.966Z,65.21
2023-01-30T01:11:24.525Z,65.82
2023-01-30T01:13:56.385Z,66.07
2023-01-30T01:16:24.463Z,65.42
2023-01-30T01:18:51.581Z,65.46
2023-01-30T01:21:20.364Z,65.95
2023-01-30T01:23:55.940Z,65.22
2023-01-30T01:26:22.989Z,66.14
2023-01-30T01:28:49.914Z,65.44
2023-01-30T01:31:17.501Z,66.24
2023-01-30T01:33:44.501Z,67.16
2023-01-30T01:36:13.427Z,65.88
2023-01-30T01:38:43.156Z,66.32
2023-01-30T01:41:12.616Z,66.17
2023-01-30T01:43:57.567Z,65.62
2023-01-30T01:46:27.154Z,66.02
2023-01-30T01:48:58.139Z,65.11
2023-01-30T01:51:38.741Z,65.25
2023-01-30T01:54:17.213Z,65.54
2023-01-30T01:56:47.939Z,66.28
2023-01-30T01:59:25.748Z,66.13
2023-01-30T02:01:57.843Z,65.73
2023-01-30T02:04:48.189Z,64.74
2023-01-30T02:07:18.875Z,64.60
2023-01-30T02:09:45.721Z,65.83
2023-01-30T02:12:14.999Z,66.11
2023-01-30T02:14:42.950Z,65.51
2023-01-30T02:17:09.693Z,65.79
2023-01-30T02:20:00.558Z,66.11
2023-01-30T02:23:17.279Z,66.42
2023-01-30T02:26:17.966Z,66.45
2023-01-30T02:29:06.013Z,66.42
2023-01-30T02:31:46.687Z,66.86
2023-01-30T02:34:23.309Z,66.47
2023-01-30T02:37:16.481Z,65.90
2023-01-30T02:40:30.671Z,66.57
2023-01-30T02:43:13.623Z,66.33
2023-01-30T02:46:02.359Z,66.16
2023-01-30T02:48:42.116Z,66.56
2023-01-30T02:51:29.557Z,66.66
2023-01-30T02:53:58.856Z,65.96
2023-01-30T02:56:25.664Z,66.39
2023-01-30T02:58:59.280Z,65.75
2023-01-30T03:01:26.805Z,66.15
2023-01-30T03:04:35.763Z,65.85
2023-01-30T03:07:37.742Z,65.33
2023-01-30T03:10:48.529Z,66.15
2023-01-30T03:13:19.732Z,66.33
2023-01-30T03:16:03.333Z,65.43
2023-01-30T03:18:30.084Z,64.80
2023-01-30T03:20:56.659Z,65.09
2023-01-30T03:23:23.413Z,64.96
2023-01-30T03:25:50.944Z,65.35
2023-01-30T03:28:21.260Z,66.15
2023-01-30T03:30:49.207Z,66.85
2023-01-30T03:33:15.911Z,67.58
2023-01-30T03:35:48.936Z,67.39
2023-01-30T03:38:15.833Z,65.60
2023-01-30T03:40:42.947Z,67.11
2023-01-30T03:43:09.881Z,65.55
2023-01-30T03:45:37.249Z,66.53
2023-01-30T03:48:04.178Z,66.54
2023-01-30T03:50:31.548Z,65.78
2023-01-30T03:52:58.353Z,65.97
2023-01-30T03:55:24.923Z,65.93
2023-01-30T03:57:56.467Z,66.07
2023-01-30T04:00:24.759Z,66.09
2023-01-30T04:02:52.148Z,66.79
2023-01-30T04:05:20.159Z,66.59
2023-01-30T04:07:56.654Z,66.32
2023-01-30T04:10:24.213Z,65.33
2023-01-30T04:12:50.857Z,65.61
2023-01-30T04:15:19.547Z,65.95
2023-01-30T04:18:06.607Z,65.44
2023-01-30T04:20:46.926Z,65.99
2023-01-30T04:23:15.808Z,66.65
2023-01-30T04:25:46.356Z,66.20
2023-01-30T04:28:15.645Z,66.54
2023-01-30T04:30:43.948Z,67.01
2023-01-30T04:33:36.758Z,66.88
2023-01-30T04:36:07.249Z,67.08
2023-01-30T04:38:35.393Z,66.05
2023-01-30T04:41:03.761Z,65.20
2023-01-30T04:43:33.333Z,65.31
2023-01-30T04:46:20.827Z,66.22
2023-01-30T04:48:47.523Z,66.54
2023-01-30T04:51:14.954Z,66.17
2023-01-30T04:53:41.920Z,67.82
2023-01-30T04:56:09.451Z,67.60
2023-01-30T04:58:36.285Z,67.83
2023-01-30T05:01:36.345Z,68.38
2023-01-30T05:04:04.234Z,67.86
2023-01-30T05:06:31.714Z,68.15
2023-01-30T05:08:59.036Z,66.02
2023-01-30T05:11:27.654Z,67.22
2023-01-30T05:13:54.872Z,66.80
2023-01-30T05:16:23.033Z,66.49
2023-01-30T05:18:50.486Z,66.88
2023-01-30T05:21:20.195Z,67.16
2023-01-30T05:23:47.232Z,66.57
2023-01-30T05:26:15.328Z,67.03
2023-01-30T05:28:43.517Z,67.03
2023-01-30T05:31:12.555Z,66.99
2023-01-30T05:33:40.399Z,66.91
2023-01-30T05:36:08.489Z,67.80
2023-01-30T05:38:35.249Z,66.50
2023-01-30T05:41:06.808Z,67.31
2023-01-30T05:43:34.780Z,67.54
2023-01-30T05:46:03.601Z,67.40
2023-01-30T05:48:30.627Z,66.93
2023-01-30T05:50:58.543Z,67.04
2023-01-30T05:53:28.560Z,67.20
2023-01-30T05:56:00.415Z,67.89
2023-01-30T05:58:28.178Z,67.06
2023-01-30T06:00:55.320Z,68.18
2023-01-30T06:03:22.020Z,68.56
2023-01-30T06:05:48.687Z,68.62
2023-01-30T06:08:15.530Z,68.93
2023-01-30T06:10:42.230Z,68.01
2023-01-30T06:13:11.047Z,67.94
2023-01-30T06:15:39.196Z,68.18
2023-01-30T06:18:05.932Z,68.06
2023-01-30T06:20:32.574Z,68.28
2023-01-30T06:22:59.210Z,69.72
2023-01-30T06:25:25.813Z,70.48
2023-01-30T06:27:52.530Z,69.01
2023-01-30T06:30:19.228Z,69.70
2023-01-30T06:32:50.272Z,70.18
2023-01-30T06:35:17.309Z,69.97
2023-01-30T06:37:45.149Z,71.02
2023-01-30T06:40:12.440Z,70.37
2023-01-30T06:42:39.169Z,69.65
2023-01-30T06:45:06.446Z,70.43
2023-01-30T06:47:33.039Z,69.70
2023-01-30T06:49:59.823Z,68.99
2023-01-30T06:52:26.498Z,68.91
2023-01-30T06:54:53.168Z,70.31
2023-01-30T06:57:19.751Z,68.84
2023-01-30T06:59:46.375Z,69.42
2023-01-30T07:02:13.289Z,69.30
2023-01-30T07:04:41.542Z,69.05
2023-01-30T07:07:08.156Z,69.98
2023-01-30T07:09:34.899Z,69.35
2023-01-30T07:12:01.605Z,69.06
2023-01-30T07:14:28.258Z,70.02
2023-01-30T07:16:54.938Z,69.75
2023-01-30T07:19:21.843Z,70.30
2023-01-30T07:21:48.436Z,70.25
2023-01-30T07:24:15.239Z,68.82
2023-01-30T07:26:42.433Z,69.79
2023-01-30T07:29:09.091Z,69.37
2023-01-30T07:31:35.783Z,69.86
2023-01-30T07:34:02.516Z,69.96
2023-01-30T07:36:29.177Z,70.50
2023-01-30T07:38:56.057Z,70.03
2023-01-30T07:41:22.764Z,70.26
2023-01-30T07:43:49.486Z,70.68
2023-01-30T07:46:16.265Z,70.54
2023-01-30T07:48:45.369Z,70.96
2023-01-30T07:51:12.147Z,70.00
2023-01-30T07:53:38.882Z,70.59
2023-01-30T07:56:10.120Z,70.99
2023-01-30T07:58:36.929Z,70.93
2023-01-30T08:01:03.651Z,71.93
2023-01-30T08:03:30.376Z,72.19
2023-01-30T08:05:57.125Z,71.17
2023-01-30T08:08:23.814Z,71.50
2023-01-30T08:10:50.715Z,71.70
2023-01-30T08:13:17.592Z,72.36
2023-01-30T08:15:44.335Z,71.34
2023-01-30T08:18:11.079Z,71.84
2023-01-30T08:20:37.770Z,71.81
2023-01-30T08:23:04.657Z,71.10
2023-01-30T08:25:31.498Z,72.29
2023-01-30T08:28:00.386Z,71.41
2023-01-30T08:30:28.255Z,72.32
2023-01-30T08:32:55.181Z,72.43
2023-01-30T08:35:21.841Z,71.43
2023-01-30T08:37:48.613Z,72.12
2023-01-30T08:40:16.177Z,71.75
2023-01-30T08:42:46.259Z,71.70
2023-01-30T08:45:13.125Z,71.50
2023-01-30T08:47:39.936Z,71.76
2023-01-30T08:50:06.827Z,71.82
2023-01-30T08:52:33.788Z,71.24
2023-01-30T08:55:00.653Z,69.86
2023-01-30T08:57:27.277Z,69.66
2023-01-30T08:59:54.030Z,69.69
2023-01-30T09:02:20.862Z,68.85
2023-01-30T09:04:47.596Z,69.16
2023-01-30T09:07:14.217Z,68.25
2023-01-30T09:09:40.951Z,68.36
2023-01-30T09:12:07.726Z,68.42
2023-01-30T09:14:34.449Z,69.61
2023-01-30T09:17:01.034Z,68.91
2023-01-30T09:19:29.236Z,69.21
2023-01-30T09:21:56.296Z,68.87
2023-01-30T09:24:26.589Z,68.68
2023-01-30T09:26:58.842Z,67.56
2023-01-30T09:29:27.069Z,66.90
2023-01-30T09:31:53.941Z,66.77
2023-01-30T09:34:20.597Z,67.23
2023-01-30T09:36:47.236Z,65.74
2023-01-30T09:39:13.932Z,65.77
2023-01-30T09:42:32.533Z,66.22
2023-01-30T09:45:27.123Z,65.87
2023-01-30T09:48:05.228Z,63.62
2023-01-30T09:50:53.462Z,63.36
2023-01-30T09:53:55.362Z,64.70
2023-01-30T09:56:22.185Z,64.17
2023-01-30T09:58:55.998Z,63.04
2023-01-30T10:01:34.536Z,66.22
2023-01-30T10:04:23.209Z,65.17
2023-01-30T10:07:00.961Z,64.53
2023-01-30T10:10:10.376Z,63.50
2023-01-30T10:13:05.790Z,62.50
2023-01-30T10:15:41.404Z,62.35
2023-01-30T10:18:16.858Z,61.57
2023-01-30T10:21:02.008Z,62.39
2023-01-30T10:23:50.484Z,63.62
2023-01-30T10:26:21.718Z,64.50
2023-01-30T10:29:06.698Z,62.87
2023-01-30T10:31:42.412Z,62.53
2023-01-30T10:34:21.685Z,62.24
2023-01-30T10:37:20.602Z,61.16
2023-01-30T10:39:55.580Z,59.47
2023-01-30T10:42:39.394Z,61.58
2023-01-30T10:45:25.412Z,60.43
2023-01-30T10:47:58.389Z,59.35
2023-01-30T10:50:43.542Z,59.49
2023-01-30T10:53:13.175Z,58.38
2023-01-30T10:55:52.953Z,56.00
2023-01-30T10:58:31.790Z,58.29
2023-01-30T11:01:15.754Z,56.94
2023-01-30T11:03:51.500Z,55.81
2023-01-30T11:06:26.032Z,54.44
2023-01-30T11:08:54.185Z,54.69
2023-01-30T11:11:25.529Z,55.08
2023-01-30T11:14:08.131Z,53.29
2023-01-30T11:16:53.935Z,53.45
2023-01-30T11:19:24.881Z,56.59
2023-01-30T11:21:54.528Z,58.05
2023-01-30T11:24:29.873Z,58.30
2023-01-30T11:27:10.232Z,57.11
2023-01-30T11:29:39.717Z,55.91
2023-01-30T11:32:13.204Z,56.77
2023-01-30T11:34:43.376Z,54.64
2023-01-30T11:37:28.159Z,53.41
2023-01-30T11:39:56.074Z,54.78
2023-01-30T11:42:29.717Z,54.64
2023-01-30T11:45:14.872Z,53.29
2023-01-30T11:48:05.611Z,53.17
2023-01-30T11:50:44.448Z,54.30
2023-01-30T11:53:25.378Z,55.27
2023-01-30T11:56:03.873Z,52.83
2023-01-30T11:58:36.178Z,53.68
2023-01-30T12:01:04.246Z,53.33
2023-01-30T12:03:33.980Z,53.31
2023-01-30T12:06:00.747Z,51.04
2023-01-30T12:08:43.595Z,51.31
2023-01-30T12:11:28.841Z,50.92
2023-01-30T12:14:05.143Z,51.79
2023-01-30T12:16:47.372Z,50.39
2023-01-30T12:19:31.253Z,51.95
2023-01-30T12:22:33.308Z,50.98
2023-01-30T12:25:05.381Z,49.82
2023-01-30T12:27:41.337Z,50.63
2023-01-30T12:30:35.929Z,49.89
2023-01-30T12:33:05.729Z,50.45
2023-01-30T12:35:53.555Z,51.05
2023-01-30T12:38:37.705Z,49.99
2023-01-30T12:41:35.309Z,50.72
2023-01-30T12:44:14.258Z,50.09
2023-01-30T12:47:24.734Z,50.33
2023-01-30T12:50:00.588Z,47.74
2023-01-30T12:52:42.532Z,48.46
2023-01-30T12:55:28.183Z,47.11
2023-01-30T12:58:17.684Z,48.83
2023-01-30T13:01:25.191Z,47.97
2023-01-30T13:04:16.797Z,47.74
2023-01-30T13:06:55.373Z,46.33
2023-01-30T13:09:37.054Z,45.76
2023-01-30T13:12:25.228Z,45.97
2023-01-30T13:14:56.741Z,47.43
2023-01-30T13:17:38.256Z,47.57
2023-01-30T13:20:17.644Z,48.85
2023-01-30T13:23:01.545Z,47.83
2023-01-30T13:26:08.646Z,48.72
2023-01-30T13:28:40.131Z,46.42
2023-01-30T13:31:11.692Z,46.76
2023-01-30T13:33:43.071Z,46.27
2023-01-30T13:36:18.998Z,45.69
2023-01-30T13:39:05.842Z,45.96
2023-01-30T13:41:48.631Z,45.95
2023-01-30T13:44:30.926Z,46.47
2023-01-30T13:47:06.263Z,45.95
2023-01-30T13:50:01.600Z,45.53
2023-01-30T13:52:43.112Z,46.15
2023-01-30T13:55:36.235Z,44.67
2023-01-30T13:58:17.862Z,46.08
2023-01-30T14:00:57.517Z,46.27
2023-01-30T14:03:25.596Z,45.68
2023-01-30T14:05:52.343Z,45.20
2023-01-30T14:08:25.684Z,45.34
2023-01-30T14:10:55.653Z,44.43
2023-01-30T14:13:23.706Z,44.68
2023-01-30T14:15:57.085Z,44.22
2023-01-30T14:18:38.867Z,45.04
2023-01-30T14:21:13.505Z,45.03
2023-01-30T14:23:42.788Z,43.94
2023-01-30T14:26:09.488Z,44.24
2023-01-30T14:28:45.853Z,44.43
2023-01-30T14:31:49.365Z,44.92
2023-01-30T14:34:39.473Z,43.87
2023-01-30T14:37:26.411Z,45.38
2023-01-30T14:39:55.690Z,44.28
2023-01-30T14:42:30.498Z,44.28
2023-01-30T14:45:00.017Z,44.76
2023-01-30T14:47:34.356Z,44.81
2023-01-30T14:50:20.905Z,44.66
2023-01-30T14:52:50.244Z,43.33
2023-01-30T14:55:29.559Z,43.14
2023-01-30T14:58:00.353Z,43.06
2023-01-30T15:00:32.277Z,44.16
2023-01-30T15:03:07.885Z,44.76
2023-01-30T15:05:37.276Z,45.00
2023-01-30T15:08:09.626Z,45.43
2023-01-30T15:10:55.861Z,46.34
2023-01-30T15:13:47.470Z,48.07
2023-01-30T15:16:45.310Z,49.22
2023-01-30T15:19:41.205Z,50.51
2023-01-30T15:22:38.335Z,50.96
2023-01-30T15:25:51.697Z,48.82
2023-01-30T15:28:27.271Z,47.36
2023-01-30T15:31:22.044Z,46.21
2023-01-30T15:33:54.126Z,47.16
2023-01-30T15:36:31.492Z,47.52
2023-01-30T15:39:05.718Z,47.58
2023-01-30T15:41:43.357Z,48.35
2023-01-30T15:44:31.288Z,48.87
2023-01-30T15:47:27.772Z,49.52
2023-01-30T15:49:55.774Z,49.66
2023-01-30T15:52:30.117Z,49.98
2023-01-30T15:54:59.665Z,50.29
2023-01-30T15:57:34.098Z,51.25
2023-01-30T16:00:02.000Z,51.15
2023-01-30T16:02:32.127Z,52.08
2023-01-30T16:05:20.436Z,53.14
2023-01-30T16:07:49.344Z,52.95
2023-01-30T16:10:22.054Z,52.42
2023-01-30T16:12:50.691Z,53.05
2023-01-30T16:15:30.021Z,53.65
2023-01-30T16:18:12.462Z,53.90
2023-01-30T16:21:00.527Z,53.45
2023-01-30T16:23:56.293Z,54.33
2023-01-30T16:26:23.239Z,55.01
2023-01-30T16:28:58.281Z,55.16
2023-01-30T16:31:26.111Z,54.91
2023-01-30T16:33:52.955Z,55.99
2023-01-30T16:36:19.608Z,55.24
2023-01-30T16:38:48.393Z,55.39
2023-01-30T16:41:39.464Z,55.01
2023-01-30T16:44:21.007Z,55.73
2023-01-30T16:47:21.847Z,55.63
2023-01-30T16:49:49.953Z,56.06
2023-01-30T16:52:23.790Z,56.01
2023-01-30T16:54:53.478Z,56.61
2023-01-30T16:57:35.997Z,56.27
2023-01-30T17:00:23.169Z,55.90
2023-01-30T17:02:54.306Z,56.47
2023-01-30T17:05:24.248Z,56.10
2023-01-30T17:07:51.815Z,57.00
2023-01-30T17:10:40.268Z,57.42
2023-01-30T17:13:33.122Z,57.22
2023-01-30T17:16:21.769Z,57.55
2023-01-30T17:18:49.856Z,58.16
2023-01-30T17:21:17.389Z,58.82
2023-01-30T17:23:50.720Z,58.21
2023-01-30T17:26:17.799Z,57.53
2023-01-30T17:28:44.439Z,58.71
2023-01-30T17:31:13.069Z,60.08
2023-01-30T17:33:39.954Z,59.95
2023-01-30T17:36:15.270Z,60.78
2023-01-30T17:38:42.001Z,59.99
2023-01-30T17:41:24.186Z,59.96
2023-01-30T17:43:51.101Z,59.48
2023-01-30T17:46:18.209Z,59.51
2023-01-30T17:48:45.632Z,59.43
2023-01-30T17:51:15.130Z,59.66
2023-01-30T17:53:41.930Z,60.23
2023-01-30T17:56:19.257Z,60.48
2023-01-30T17:58:46.033Z,60.26
2023-01-30T18:01:16.038Z,60.19
2023-01-30T18:03:43.948Z,60.73
2023-01-30T18:06:14.273Z,60.64
2023-01-30T18:08:42.080Z,60.52
2023-01-30T18:11:12.113Z,60.95
2023-01-30T18:13:39.733Z,61.70
2023-01-30T18:16:06.695Z,61.37
2023-01-30T18:18:33.625Z,60.97
2023-01-30T18:21:00.295Z,61.59
2023-01-30T18:23:27.013Z,61.85
2023-01-30T18:25:53.709Z,61.33
2023-01-30T18:28:20.433Z,60.63
2023-01-30T18:30:47.156Z,60.82
2023-01-30T18:33:14.068Z,61.54
2023-01-30T18:35:40.798Z,61.57
2023-01-30T18:38:07.485Z,61.73
2023-01-30T18:40:34.096Z,61.22
2023-01-30T18:43:00.783Z,61.92
2023-01-30T18:45:27.344Z,61.94
2023-01-30T18:47:54.586Z,61.97
2023-01-30T18:50:21.806Z,61.94
2023-01-30T18:52:49.880Z,61.72
2023-01-30T18:55:16.830Z,61.61
2023-01-30T18:57:43.531Z,61.80
2023-01-30T19:00:10.889Z,61.23
2023-01-30T19:02:37.783Z,60.85
2023-01-30T19:05:04.900Z,61.59
2023-01-30T19:07:31.644Z,61.89
2023-01-30T19:09:59.466Z,62.34
2023-01-30T19:12:44.535Z,61.95
2023-01-30T19:15:11.377Z,61.73
2023-01-30T19:17:37.974Z,61.77
2023-01-30T19:20:10.659Z,61.39
2023-01-30T19:22:38.649Z,62.09
2023-01-30T19:25:05.815Z,61.87
2023-01-30T19:27:36.156Z,61.94
2023-01-30T19:30:03.263Z,61.89
2023-01-30T19:32:29.980Z,61.92
2023-01-30T19:34:56.732Z,62.32
2023-01-30T19:37:23.378Z,61.88
2023-01-30T19:39:49.984Z,62.51
2023-01-30T19:42:16.722Z,62.44
2023-01-30T19:44:43.441Z,62.42
2023-01-30T19:47:10.045Z,61.84
2023-01-30T19:49:37.550Z,61.24
2023-01-30T19:52:04.613Z,60.76
2023-01-30T19:54:31.363Z,62.04
2023-01-30T19:56:59.867Z,61.15
2023-01-30T19:59:26.763Z,61.55
2023-01-30T20:01:54.424Z,61.72
2023-01-30T20:04:21.174Z,61.96
2023-01-30T20:06:49.791Z,61.78
2023-01-30T20:09:16.733Z,62.22
2023-01-30T20:11:43.831Z,62.27
2023-01-30T20:14:12.446Z,60.91
2023-01-30T20:16:40.081Z,61.18
2023-01-30T20:19:17.344Z,58.04
2023-01-30T20:21:45.447Z,57.07
2023-01-30T20:24:14.937Z,53.47
2023-01-30T20:26:42.601Z,48.14
2023-01-30T20:29:10.869Z,44.16
2023-01-30T20:31:39.188Z,44.52
2023-01-30T20:34:11.421Z,43.16
2023-01-30T20:36:38.306Z,43.17
2023-01-30T20:39:07.616Z,43.10
2023-01-30T20:41:36.573Z,43.19
2023-01-30T20:44:04.970Z,42.35
2023-01-30T20:46:41.464Z,42.12
2023-01-30T20:49:13.795Z,41.80
2023-01-30T20:51:40.936Z,41.91
2023-01-30T20:54:09.689Z,40.69
2023-01-30T20:56:45.558Z,40.18
2023-01-30T20:59:15.641Z,39.54
2023-01-30T21:01:44.018Z,39.41
2023-01-30T21:04:14.163Z,39.54
2023-01-30T21:06:45.755Z,39.08
2023-01-30T21:09:16.182Z,38.23
2023-01-30T21:11:43.435Z,37.87
2023-01-30T21:14:10.344Z,37.64
2023-01-30T21:16:38.407Z,38.07
2023-01-30T21:19:12.961Z,38.14
2023-01-30T21:21:53.502Z,37.35
2023-01-30T21:24:29.375Z,38.48
2023-01-30T21:26:56.534Z,39.31
2023-01-30T21:29:26.068Z,39.40
2023-01-30T21:31:54.446Z,40.19
2023-01-30T21:34:22.100Z,40.49
2023-01-30T21:37:08.880Z,40.77
2023-01-30T21:39:54.898Z,40.60
2023-01-30T21:42:40.476Z,41.42
2023-01-30T21:45:07.782Z,40.19
2023-01-30T21:47:34.334Z,39.01
2023-01-30T21:50:01.090Z,38.68
2023-01-30T21:52:27.823Z,37.84
2023-01-30T21:54:54.669Z,38.97
2023-01-30T21:57:21.224Z,38.89
2023-01-30T21:59:47.956Z,36.97
2023-01-30T22:02:14.490Z,36.91
2023-01-30T22:04:41.187Z,36.96
2023-01-30T22:07:07.886Z,37.96
2023-01-30T22:09:34.571Z,38.25
2023-01-30T22:12:01.281Z,37.91
2023-01-30T22:14:27.995Z,37.28
2023-01-30T22:16:54.824Z,37.07
2023-01-30T22:19:21.471Z,38.09
2023-01-30T22:21:48.062Z,38.04
2023-01-30T22:24:15.251Z,36.03
2023-01-30T22:26:41.865Z,34.92
2023-01-30T22:29:09.140Z,33.30
2023-01-30T22:31:38.642Z,33.28
2023-01-30T22:34:05.504Z,33.88
2023-01-30T22:36:33.928Z,33.03
2023-01-30T22:39:01.791Z,33.47
2023-01-30T22:41:31.714Z,34.34
2023-01-30T22:43:59.869Z,32.63
2023-01-30T22:46:30.107Z,32.51
2023-01-30T22:48:57.554Z,32.32
2023-01-30T22:51:26.864Z,31.73
2023-01-30T22:53:56.218Z,32.05
2023-01-30T22:56:41.239Z,30.68
2023-01-30T22:59:08.940Z,31.63
2023-01-30T23:01:38.221Z,31.13
2023-01-30T23:04:15.903Z,32.13
2023-01-30T23:06:43.660Z,30.90
2023-01-30T23:09:13.504Z,30.65
2023-01-30T23:11:43.814Z,30.90
2023-01-30T23:14:13.286Z,31.61
2023-01-30T23:16:42.049Z,30.97
2023-01-30T23:19:11.307Z,30.62
2023-01-30T23:21:39.174Z,30.03
2023-01-30T23:24:11.947Z,29.99
2023-01-30T23:26:41.659Z,31.15
2023-01-30T23:29:10.105Z,31.07
2023-01-30T23:31:36.895Z,31.48
2023-01-30T23:34:06.231Z,31.80
2023-01-30T23:36:34.454Z,29.90
2023-01-30T23:39:01.850Z,31.06
2023-01-30T23:41:31.051Z,29.79
2023-01-30T23:43:58.864Z,30.05
2023-01-30T23:46:33.802Z,30.01
2023-01-30T23:49:03.266Z,30.17
2023-01-30T23:51:32.444Z,30.26
2023-01-30T23:53:59.579Z,28.64
2023-01-30T23:56:29.477Z,28.92
2023-01-30T23:58:56.900Z,28.86
